x

8447387 - Borden Flats Light At Fall River, Ma (bltm3) Weather Station

6:54 - Sat 23rd Jul 2016 All times are EDT. -4 hours from GMT.

  • Wind
    5mph, 6mph gusts
  • Aire Temp 75°f
  • Sea Pressure 1008.5mb
  • 8447387 - Borden Flats Light At Fall River, Ma
  • 8447387 - Borden Flats Light At Fall River, Ma

More Historic Weather Station data

Upgrade to MSW Pro to gain access to the past 30 days of data for over 8000 Wavebouys and Weather Stations around the globe.

Join Pro

Comparision Forecast

View Surf forecast
   
sáb 07/23 6:54 5 6 mph 1008.5mb 75f
6:48 5 6 mph 1008.4mb 75f
6:42 6 8 mph 1008.4mb 75f
6:36 6 8 mph 1008.4mb 75f
6:30 7 8 mph 1008.4mb 75f
6:24 8 10 mph 1008.3mb 75f
6:18 8 9 mph 1008.2mb 75f
6:12 9 11 mph 1008.2mb 75f
6:06 9 10 mph 1008.1mb 75f
6:00 8 10 mph 1008.1mb 75f
5:54 9 10 mph 1008mb 75f
5:48 8 9 mph 1008mb 75f
5:42 7 8 mph 1008mb 75f
5:36 8 9 mph 1008mb 75f
5:30 7 9 mph 1008.1mb 75f
5:24 8 9 mph 1008mb 75f
5:18 7 9 mph 1008mb 75f
5:12 6 9 mph 1008mb 74f
5:06 6
mph
1007.9mb 74f
5:00 6 7 mph 1007.9mb 74f
4:54 6
mph
1007.9mb 74f
4:48 5 6 mph 1007.9mb 74f
4:42 2
mph
1007.9mb 74f
4:36 2 3 mph 1007.8mb 74f
4:30 5 6 mph 1007.8mb 74f
4:24 2 5 mph 1007.8mb 74f
4:18 2 3 mph 1007.8mb 74f
4:12 3 6 mph 1007.9mb 74f
4:06 6 9 mph 1007.9mb 74f
4:00 7 10 mph 1007.9mb 74f
3:54 8 10 mph 1007.9mb 74f
3:48 8 11 mph 1007.9mb 74f
3:42 7 9 mph 1007.9mb 74f
3:36 7 10 mph 1007.9mb 74f
3:30 6 8 mph 1008mb 74f
3:24 2 7 mph 1008.1mb 74f
3:18 1 3 mph 1008.2mb 74f
3:12 2 5 mph 1008.1mb 74f
3:06 5 6 mph 1008.2mb 74f
3:00 5 6 mph 1008.3mb 74f
2:54 7 9 mph 1008.3mb 74f
2:48 7 9 mph 1008.4mb 74f
2:42 6 8 mph 1008.4mb 74f
2:36 6 9 mph 1008.4mb 74f
2:30 5 7 mph 1008.5mb 74f
2:24 3 5 mph 1008.4mb 73f
2:18 5 6 mph 1008.4mb 73f
2:12 6 8 mph 1008.4mb 73f
2:06 6 8 mph 1008.5mb 73f
2:00 7 8 mph 1008.4mb 74f
1:54 6 8 mph 1008.3mb 74f
1:48 5 7 mph 1008.3mb 73f
1:42 8 9 mph 1008.3mb 73f
1:36 8 10 mph 1008.9mb 72f
1:30 11 14 mph 1009.2mb 73f
1:24 15 20 mph 1009.5mb 73f
1:18 23 29 mph 1009.8mb 74f
1:12 17 21 mph 1009.8mb 75f
1:06 9 14 mph 1009mb 74f
1:00 10 14 mph 1008.8mb 74f
12:54 9 11 mph 1008.6mb 74f
12:48 8 9 mph 1008.8mb 73f
12:42 9 11 mph 1008.7mb 74f
12:36 8 11 mph 1008.7mb 74f
12:30 6 8 mph 1008.6mb 73f
12:24 8 10 mph 1008.5mb 73f
12:18 8 10 mph 1008.5mb 73f
12:12 9 14 mph 1008.8mb 74f
12:06 10 14 mph 1008.8mb 73f
12:00 8 14 mph - 74f
vie 07/22 11:54 13 29 mph - 74f
11:48 28 43 mph 1009.7mb 76f
11:42 20 34 mph 1009.6mb 75f
11:36 14 18 mph 1010mb 77f
11:30 14 16 mph 1008.9mb 77f
11:24 14 16 mph 1008.6mb 77f
11:18 14 17 mph 1008.4mb 77f
11:12 21 25 mph 1008.9mb 77f
11:06 18 23 mph 1009mb 77f
11:00  -  mph - 77f
10:54  -  mph - 77f
10:48 11 16 mph - -
10:42 14 16 mph - -
10:36 14 17 mph - -
10:30 13 17 mph - -
10:24 9 14 mph - -
10:18 9 15 mph - 78f
10:06 14 20 mph - 79f
9:54 17 24 mph - 78f
9:48 13 17 mph - -
9:42 13 17 mph - -
9:36 14 17 mph - -
9:30 13 16 mph - -
9:24 16 18 mph - -
9:18 17 20 mph 1009.4mb -
9:12 17 21 mph 1009.1mb -
9:06 17 21 mph 1009.2mb -
9:00  -  mph - 78f
8:54  -  mph - 78f
8:48  -  mph - 78f
8:42 17 22 mph - -
8:36 16 21 mph - -
8:30 14 17 mph - 78f
8:24 14 18 mph - 78f
8:18 14 16 mph - 79f
8:12 15 22 mph - 79f
8:06 15 20 mph - 79f
8:00  -  mph - 79f
7:54  -  mph - 79f
7:48 18 24 mph - -
7:42 15 20 mph - -
7:36 15 20 mph - -
7:30 16 23 mph - -
7:24 17 22 mph - -
7:18 14 20 mph - -
7:12 15 21 mph - -
7:00 18 23 mph - -
6:54 18 24 mph - -
6:48 20 26 mph - -
6:42 22 29 mph - -
6:36 22 29 mph - -
6:30 26 31 mph - 81f
6:24 23 28 mph - 81f
6:18  -  mph - 81f
6:12  -  mph - 82f
6:06  -  mph - 82f
6:00  -  mph - 81f
5:54  -  mph - 82f
5:48 22 26 mph - 82f
5:42 21 29 mph - 82f
5:36 21 28 mph - 82f
5:30 21 26 mph 1008.8mb 82f
5:24 21 30 mph 1008.7mb 82f
5:18 22 28 mph 1008.8mb 82f
5:12 25 31 mph 1008.8mb 82f
5:06 22 28 mph 1008.9mb 82f
5:00 23 29 mph 1008.9mb 82f
4:54 21 25 mph 1008.9mb 82f
4:48 22 30 mph 1008.8mb 82f
4:42 20 25 mph 1008.9mb 83f
4:36 22 30 mph 1008.9mb 83f
4:30 23 29 mph 1009mb 83f
4:24 22 29 mph 1009mb 83f
4:18 22 29 mph 1008.9mb 83f
4:12 21 26 mph 1009mb 83f
4:06 21 26 mph 1009.1mb 83f
4:00 22 28 mph 1009mb 83f
3:54 22 28 mph 1009mb 83f
3:48 22 29 mph 1009mb 83f
3:42 22 26 mph 1009.1mb 83f
3:36 21 25 mph 1009.3mb 83f
3:30 22 28 mph 1009.3mb 83f
3:24 21 26 mph 1009.3mb 83f
3:18 21 25 mph 1009.5mb 83f
3:12 22 28 mph 1009.6mb 82f
3:06 22 26 mph 1009.6mb 82f
3:00 22 29 mph 1009.6mb 82f
2:54 22 29 mph 1009.6mb 82f
2:48 24 29 mph 1009.6mb 82f
2:42 23 29 mph 1009.8mb 82f
2:36 20 25 mph 1009.8mb 82f
2:30 23 26 mph 1009.8mb 82f
2:24 20 24 mph 1009.9mb 82f
2:18 21 24 mph 1009.9mb 82f
2:12 21 24 mph 1010mb 82f
2:06 20 24 mph 1010mb 82f
2:00 20 24 mph 1010.1mb 82f
1:54 22 28 mph 1010.1mb 82f
1:48 21 24 mph 1010.2mb 82f
1:42 18 25 mph 1010.3mb 82f
1:36 21 26 mph 1010.2mb 82f
1:30 22 29 mph 1010.2mb 82f
1:24 22 28 mph 1010.3mb 82f
1:18 22 26 mph 1010.4mb 82f
1:12 22 25 mph 1010.4mb 82f
1:06 18 24 mph 1010.5mb 82f
1:00 22 26 mph 1010.6mb 81f
12:54 21 24 mph 1010.8mb 82f
12:48 21 25 mph 1010.9mb 81f
12:42 18 23 mph 1011mb 81f
12:36 16 20 mph 1011.1mb 81f
12:30 17 24 mph 1011.2mb 80f
12:24 16 22 mph 1011.4mb 80f
12:18 18 22 mph 1011.4mb 80f
12:12 17 22 mph 1011.4mb 80f
12:06 16 20 mph 1011.5mb 80f
12:00 16 21 mph 1011.6mb 80f
11:54 17 22 mph 1011.6mb 80f
11:48 18 23 mph 1011.6mb 80f
11:42 17 23 mph 1011.8mb 80f
11:36 18 21 mph 1011.9mb 79f
11:30 21 24 mph 1012mb 79f
11:24 21 23 mph 1012mb 79f
11:18 22 25 mph 1012mb 79f
11:12 22 24 mph 1012mb 79f
11:06 22 24 mph 1012.1mb 79f
11:00 22 24 mph 1012.2mb 79f
10:54 20 22 mph 1012.3mb 79f
10:48 17 20 mph 1012.3mb 78f
10:42 17 21 mph 1012.3mb 78f
10:36 16 20 mph 1012.4mb 78f
10:30 18 22 mph 1012.4mb 78f
10:24 18 23 mph 1012.5mb 78f
10:18 20 24 mph 1012.5mb 77f
10:12 21 24 mph 1012.5mb 77f
10:06 20 22 mph 1012.6mb 77f
10:00 20 23 mph 1012.6mb 77f
9:54 20 22 mph 1012.7mb 77f
9:48 21 24 mph 1012.7mb 77f
9:42 21 25 mph 1012.6mb 77f
9:36 21 26 mph 1012.5mb 77f
9:30 21 25 mph 1012.6mb 77f
9:24 22 24 mph 1012.5mb 76f
9:18 21 23 mph 1012.8mb 76f
9:06 21 23 mph 1012.8mb 76f
9:00 18 23 mph 1013mb 76f
8:54 20 24 mph 1013.1mb 76f
8:48 20 24 mph 1013.3mb 76f
8:42 17 21 mph 1013.4mb 76f
8:36 18 23 mph 1013.5mb 76f
8:30 18 22 mph 1013.5mb 76f
8:24 17 22 mph 1013.6mb 76f
8:18 18 22 mph 1013.6mb 75f
8:12 18 21 mph 1013.7mb 75f
8:06 17 21 mph 1013.7mb 75f
8:00 18 22 mph 1013.7mb 75f
7:54 18 23 mph 1013.9mb 75f
7:48 18 21 mph 1014mb 75f
7:42 20 23 mph 1014mb 75f
7:36 18 22 mph 1014.1mb 75f
7:30 20 23 mph 1014.1mb 75f
7:24 17 22 mph 1014.2mb 74f
7:18 14 18 mph 1014.3mb 74f
7:12 15 18 mph 1014.3mb 74f
7:06 14 17 mph 1014.4mb 74f
7:00 13 15 mph 1014.5mb 74f
6:54 11 15 mph 1014.5mb 74f
6:48 13 15 mph 1014.5mb 74f
6:42 15 18 mph 1014.6mb 74f
6:36 14 18 mph 1014.6mb 74f
6:30 16 20 mph 1014.6mb 74f
6:24 15 18 mph 1014.5mb 74f
6:18 16 21 mph 1014.5mb 73f
6:12 16 21 mph 1014.5mb 73f
6:06 16 21 mph 1014.6mb 73f
6:00 17 21 mph 1014.6mb 73f
5:54 16 18 mph 1014.7mb 73f
5:48 15 18 mph 1014.6mb 73f
5:42 17 22 mph 1014.7mb 73f
5:36 17 20 mph 1014.7mb 73f
5:30 16 18 mph 1014.7mb 73f
5:24 16 21 mph 1014.6mb 73f
5:18 15 17 mph 1014.6mb 73f
5:12 15 20 mph 1014.6mb 73f
5:06 15 18 mph 1014.7mb 73f
5:00 15 20 mph 1014.8mb 73f
4:54 14 18 mph 1014.8mb 73f
4:48 15 17 mph 1014.8mb 73f
4:42 15 18 mph 1014.9mb 73f
4:36 14 18 mph 1015mb 73f
4:30 14 16 mph 1014.8mb 73f
4:24 11 16 mph 1014.7mb 73f
4:18 13 16 mph 1014.7mb 73f
4:12 14 18 mph 1014.8mb 73f
4:06 14 17 mph 1014.9mb 73f
4:00 13 16 mph 1014.9mb 73f
3:54 11 16 mph 1015mb 73f
3:48 13 17 mph 1015mb 73f
3:42 14 17 mph 1015.1mb 73f
3:36 14 18 mph 1015.1mb 73f
3:30 14 17 mph 1015.2mb 73f
3:24 15 17 mph 1015.2mb 73f
3:18 16 20 mph 1015.2mb 73f
3:12 18 22 mph 1015.2mb 74f
3:06 17 20 mph 1015.2mb 73f
3:00 16 21 mph 1015.2mb 73f
2:54 15 18 mph 1015.2mb 74f
2:48 16 20 mph 1015.3mb -
2:42 15 18 mph 1015.3mb -
2:36 15 18 mph 1015.2mb -
2:30 15 17 mph 1015.2mb 74f
2:24 16 18 mph 1015.4mb 74f
2:18 16 18 mph 1015.4mb 74f
2:12 16 18 mph 1015.4mb 74f
2:06 17 20 mph 1015.5mb 74f
2:00 17 20 mph 1015.5mb 74f
1:54 16 20 mph 1015.6mb 74f
1:48 17 20 mph 1015.6mb -
1:42 17 20 mph 1015.6mb -
1:36 15 17 mph 1015.7mb -
1:30 16 18 mph 1015.8mb 74f
1:24 16 18 mph 1015.7mb 74f
1:18 15 18 mph 1015.7mb 74f
1:12 16 18 mph 1015.8mb 74f
1:06 15 17 mph 1015.9mb 74f
1:00 16 20 mph 1016mb 74f
12:54 16 20 mph 1016mb 74f
12:48 15 17 mph 1016mb 74f
12:42 16 18 mph 1016mb 74f
12:36 16 20 mph 1016.1mb 74f
12:30 16 20 mph 1016.3mb 75f
12:24 16 20 mph 1016.3mb 74f
12:18 16 18 mph 1016.5mb 75f
12:12 15 18 mph 1016.6mb 75f
12:06 15 18 mph 1016.6mb 75f
jue 07/21 11:54 15 17 mph 1016.7mb 75f
11:48 16 18 mph 1016.7mb 75f
11:42 17 20 mph 1016.7mb 75f
11:36 17 21 mph 1016.7mb 75f
11:30 16 20 mph 1016.8mb 75f
11:24 16 20 mph 1016.8mb 75f
11:18 18 21 mph - 75f
11:12 18 21 mph - 75f
11:06 17 20 mph - 75f
11:00  -  mph - 75f
10:54  -  mph - 75f
10:48 17 21 mph - -
10:42 17 20 mph - -
10:36 18 22 mph - -
10:30 18 21 mph - -
10:24 17 20 mph - -
10:18 18 22 mph - 75f
10:12 17 20 mph - 75f
10:00  -  mph - 76f
9:54  -  mph - 76f
9:48 18 22 mph - -
9:42 18 22 mph - -
9:36 17 21 mph - -
9:30 15 18 mph - -
9:24 17 21 mph - -
9:18 17 20 mph - -
9:12 17 20 mph - -
9:06 18 22 mph - -
9:00  -  mph - 76f
8:54  -  mph - 76f
8:48  -  mph - 76f
8:42  -  mph - 76f
8:36  -  mph - 76f
8:30  -  mph - 76f
8:24  -  mph - 76f
8:18 21 24 mph 1016.8mb -
8:12 21 23 mph 1016.8mb -
8:06 20 24 mph 1016.9mb -
8:00  -  mph - 77f
7:54  -  mph - 77f
7:48  -  mph - 77f
7:42  -  mph - 77f
7:36  -  mph - 77f
7:30  -  mph - 77f
7:24  -  mph - 77f
7:18 23 28 mph - 77f
7:12 23 28 mph - 78f
7:06 22 26 mph - 78f
7:00 23 29 mph - 78f
6:54 22 25 mph - 78f
6:48 23 28 mph - 78f
6:42 23 28 mph - 78f
6:36 23 26 mph - 78f
6:30 23 28 mph - 78f
6:24 25 29 mph - 78f
6:18  -  mph 1016.9mb 78f
6:12  -  mph 1016.9mb 78f
6:06  -  mph 1017.1mb 78f
6:00  -  mph - 78f
5:54  -  mph - 78f
5:48 23 28 mph 1017.3mb 78f
5:42 25 28 mph 1017.2mb 78f
5:36 28 30 mph 1017.1mb 78f
5:30 24 28 mph 1017.3mb 78f
5:24 25 30 mph 1017.2mb 79f
5:18 25 28 mph 1017.2mb 79f
5:12 23 28 mph 1017.3mb 79f
5:06 24 28 mph 1017.3mb 79f
5:00 21 24 mph 1017.4mb 80f
4:54 23 28 mph 1017.4mb 80f
4:48 22 25 mph 1017.5mb 80f
4:42 22 25 mph 1017.6mb 80f
4:36 21 25 mph 1017.5mb 81f
4:30 22 25 mph 1017.5mb 80f
4:24 20 24 mph 1017.6mb 80f
4:18 21 24 mph 1017.7mb 80f
4:12 20 24 mph 1017.7mb 81f
4:06 17 22 mph 1017.8mb 81f
4:00 18 24 mph 1017.9mb 80f
3:54 20 23 mph 1017.7mb 81f
3:48 16 22 mph 1017.8mb 81f
3:42 20 24 mph 1017.8mb 81f
3:36 18 25 mph 1017.8mb 81f
3:30 17 23 mph 1017.8mb 82f
3:24 20 23 mph 1017.9mb 81f
3:18 16 21 mph 1018mb 82f
3:12 15 21 mph 1018.2mb 81f
3:06 16 20 mph 1018.2mb 81f
3:00 16 21 mph 1018.1mb 81f
2:54 18 22 mph 1018.1mb 80f
2:48 22 25 mph 1018mb 80f
2:42 16 20 mph 1018.1mb 81f
2:36 20 22 mph 1018.1mb 81f
2:30 20 23 mph 1018.2mb 80f
2:24 16 21 mph 1018.4mb 80f
2:18 17 21 mph 1018.4mb 80f
2:12 17 18 mph 1018.4mb 81f
2:06 17 22 mph 1018.4mb 81f
2:00 18 21 mph 1018.6mb 80f
1:54 16 18 mph 1018.6mb 81f
1:48 15 17 mph 1018.7mb 81f
1:42 14 16 mph 1018.8mb 81f
1:36 13 16 mph 1019mb 80f
1:30 10 15 mph 1019mb 81f
1:24 10 13 mph 1019.1mb 81f
1:18 13 14 mph 1019.3mb 81f
1:12 11 14 mph 1019.3mb 81f
1:06 11 13 mph 1019.3mb 81f
1:00 13 14 mph 1019.2mb 80f
12:54 14 16 mph 1019.1mb 81f
12:48 14 16 mph 1019mb 81f
12:42 13 15 mph 1019.3mb 81f
12:36 13 14 mph 1019.5mb 80f
12:30 10 14 mph 1019.8mb 80f
12:24 11 13 mph 1019.8mb 80f
12:18 13 15 mph 1019.8mb 80f
12:12 13 14 mph 1019.9mb 80f
12:06 13 14 mph 1020mb 80f
12:00 13 14 mph 1020.1mb 79f
11:54 11 14 mph 1020.2mb 79f
11:48 11 13 mph 1020.4mb 79f
11:42 11 13 mph 1020.6mb 79f
11:36 11 13 mph 1020.7mb 79f
11:30 11 13 mph 1020.5mb 79f
11:24 11 14 mph 1020.5mb 78f
11:18 9
mph
1020.6mb 78f
11:12 9 10 mph 1020.6mb 78f
11:06 8 9 mph 1020.6mb 78f
11:00 9 10 mph 1020.6mb 78f
10:54 9 10 mph 1020.6mb 78f
10:48 8
mph
1020.8mb 77f
10:42 7 9 mph 1020.8mb 77f
10:36 7 8 mph 1020.8mb 77f
10:30 6 7 mph 1020.9mb 76f
10:24 6 7 mph 1021mb 76f
10:12 7 8 mph 1021.2mb 75f
10:06 7
mph
1021mb 75f
10:00 7 8 mph 1020.9mb 75f
9:54 7 8 mph 1021mb 75f
9:48 7 8 mph 1021mb 74f
9:42 7 8 mph 1020.9mb 74f
9:36 7
mph
1020.9mb 74f
9:30 6 7 mph 1020.8mb 74f
9:24 6 7 mph 1020.8mb 74f
9:18 7 8 mph 1020.8mb 73f
9:12 7 8 mph 1021.1mb 73f
9:06 6 7 mph 1021.2mb 73f
9:00 6 7 mph 1021.2mb 73f
8:54 6
mph
1021.2mb 73f
8:48 5 6 mph 1021.2mb 73f
8:42 5 6 mph 1021.2mb 72f
8:36 5 6 mph 1021.1mb 72f
8:30 6 7 mph 1021.2mb 72f
8:24 6
mph
1021.2mb 72f
8:18 6
mph
1021.2mb 72f
8:12 5 6 mph 1021.3mb 72f
8:06 5 6 mph 1021.4mb 71f
8:00 5 6 mph 1021.6mb 71f
7:54 6 7 mph 1021.6mb 71f
7:48 7 8 mph 1021.7mb 71f
7:42 7 8 mph 1021.7mb 71f
7:36 6 7 mph 1021.8mb 71f
7:30 6 7 mph 1021.7mb 71f
7:24 6 8 mph 1021.7mb 71f
7:18 5 8 mph 1021.7mb 70f
7:12 5 7 mph 1021.7mb 70f
7:06 5 6 mph 1021.7mb 71f
7:00 5 6 mph 1021.5mb 70f
6:54 6
mph
1021.5mb 70f
6:48 5 6 mph 1021.5mb 69f
6:42 3 5 mph 1021.5mb 69f
6:36 3 5 mph 1021.5mb 69f
6:30 5 7 mph 1021.5mb 69f
6:24 7 9 mph 1021.5mb 69f
6:18 9 11 mph 1021.4mb 70f
6:12 3 5 mph 1021.3mb 69f
6:06 6
mph
1021.2mb 69f
6:00 6 7 mph 1021.2mb 69f
5:54 7 8 mph 1021.1mb 69f
5:48 7 8 mph 1021.1mb 70f
5:42 5 9 mph 1021mb 70f
5:36 6 7 mph 1020.9mb 70f
5:30 7 9 mph 1020.9mb 71f
5:24 9 11 mph 1021mb 70f
5:18 9 10 mph 1020.9mb 70f
5:12 8 9 mph 1020.7mb 70f
5:06 8 10 mph 1020.6mb 70f
5:00 7 9 mph 1020.7mb 70f
4:54 9 10 mph 1020.6mb 70f
4:48 5 6 mph 1020.6mb 69f
4:42 5 6 mph 1020.6mb 69f
4:36 5 6 mph 1020.5mb 69f
4:30 2
mph
1020.3mb 70f
4:24 3 5 mph 1020.3mb 70f
4:18 2 3 mph 1020.2mb 70f
4:12 2
mph
1020.2mb 70f
4:06 2 3 mph 1020.2mb 70f
4:00 2
mph
1020.2mb 70f
3:54  -  2 mph 1020.3mb 70f
3:48 1 2 mph 1020.4mb 70f
3:42  -  1 mph 1020.5mb 71f
3:36  -  mph 1020.6mb 70f
3:30  -  1 mph 1020.7mb 70f
3:24  -  1 mph 1020.7mb 70f
3:18  -  2 mph 1020.7mb 70f
3:12 2
mph
1020.7mb 70f
3:06 1 2 mph 1020.7mb 70f
3:00 1 2 mph 1020.8mb 70f
2:54 1 2 mph 1020.8mb 71f
2:48 2 3 mph 1020.8mb 71f
2:42 1 2 mph 1020.8mb 71f
2:36 1 2 mph 1020.9mb 71f
2:30 2 5 mph 1021mb 71f
2:24 3 5 mph 1021mb 71f
2:18 5
mph
1021mb 71f
2:12 3
mph
1021mb 71f
2:06 2 3 mph 1021.1mb 72f
2:00 3
mph
1021mb 72f
1:54 3 5 mph 1021.1mb 72f
1:48 5 6 mph 1021.1mb -
1:36 3 5 mph 1021.2mb -
1:30 3 5 mph 1021.3mb 71f
1:24 3
mph
1021.3mb 71f
1:18 5 6 mph 1021.3mb 71f
1:12 6 8 mph 1021.2mb 71f
1:06 5 7 mph 1021.3mb 71f
1:00 3 5 mph 1021.4mb 71f
12:54 3 5 mph 1021.4mb 71f
12:48 3 5 mph 1021.3mb 71f
12:42 5 6 mph 1021.3mb 71f
12:36 3 5 mph 1021.4mb 71f
12:30 5 6 mph 1021.4mb 71f
12:24 5 6 mph 1021.4mb 71f
12:18 6
mph
1021.3mb 71f
12:12 6 7 mph 1021.4mb 71f
12:06 6 8 mph 1021.4mb 71f
12:00 6 8 mph 1021.4mb 72f
mié 07/20 11:54 9 10 mph 1021.4mb 72f
11:48 9 10 mph 1021.5mb 72f
11:42 8 10 mph 1021.5mb 72f
11:36 9 10 mph 1021.4mb 72f
11:30 9 10 mph 1021.4mb 72f
11:24 9 10 mph 1021.4mb 72f
11:18 9 10 mph 1021.4mb 72f
11:12 8 10 mph 1021.4mb 73f
11:06 8 10 mph 1021.4mb 72f
11:00  -  mph - 72f
10:54  -  mph - 72f
10:48  -  mph 1021.4mb -
10:42  -  mph 1021.4mb -
10:36  -  mph 1021.3mb -
10:30 9 10 mph - -
10:24 9 10 mph - -
10:18 9 10 mph - -
10:12 10 11 mph - -
10:06 10 13 mph - -
10:00  -  mph - 73f
9:54  -  mph - 73f
9:48 10 11 mph 1021mb -
9:42 11 13 mph 1020.9mb -
9:36 10 13 mph 1020.9mb -
9:30 13 15 mph 1020.7mb -
9:24 10 14 mph 1020.7mb -
9:18 11 13 mph - -
9:12 11 14 mph - -
9:06 8 10 mph - -
9:00  -  mph - 77f
8:54  -  mph - 77f
8:48  -  mph 1020.3mb -
8:42  -  mph 1020.2mb -
8:36  -  mph 1020.2mb -
8:30 6 7 mph - -
8:24 6 8 mph - -
8:18 7 8 mph - 78f
8:12 7 9 mph - 79f
8:06 6 8 mph - 79f
8:00  -  mph 1020mb 79f
7:54  -  mph 1020mb 80f
7:48  -  mph 1020mb 80f
7:42  -  mph 1020mb 80f
7:36  -  mph 1019.9mb 80f
7:30 7 10 mph - -
7:24 8 11 mph - -
7:18 6 9 mph - -
7:12 10 14 mph - -
7:06 9 11 mph - -
7:00  -  mph - 81f
6:54  -  mph - 81f
6:48 10 13 mph - -
6:42 10 13 mph - -
6:36 9 14 mph - -
6:30 11 15 mph - -
6:24 9 14 mph - -
6:18 8 11 mph - 78f
6:12 10 13 mph - 77f
6:06 11 15 mph - 77f
6:00  -  mph - 77f
5:54  -  mph - 77f
5:48  -  mph - 77f
5:42  -  mph - 76f
5:36  -  mph - 76f
5:30 14 16 mph 1019.5mb 77f
5:24 13 15 mph 1019.6mb 76f
5:18 10 13 mph 1019.7mb 77f
5:12 15 16 mph 1019.6mb 77f
5:06 14 16 mph 1019.6mb 76f
5:00 14 15 mph 1019.7mb 76f
4:54 14 17 mph 1019.6mb 77f
4:48 14 17 mph 1019.7mb 77f
4:42 13 16 mph 1019.8mb 77f
4:36 14 16 mph 1019.8mb 76f
4:24 14 18 mph 1019.8mb 76f
4:18 10 14 mph 1019.9mb 77f
4:12 13 16 mph 1019.9mb 76f
4:06 8 15 mph 1020.1mb 77f
4:00 9 11 mph 1020.1mb 78f
3:54 10 14 mph 1020.3mb 79f
3:48 9 16 mph 1020.2mb 81f
3:42 10 14 mph 1020.3mb 81f
3:36 8 9 mph 1020.4mb 79f
3:30 11 16 mph 1020.4mb 81f
3:24 16 21 mph 1020.6mb 79f
3:18 9 14 mph 1020.6mb 78f
3:12 13 17 mph 1020.7mb 78f
3:06 9 14 mph 1020.7mb 80f
3:00 13 16 mph 1020.7mb 78f
2:54 14 17 mph 1020.7mb 78f
2:48 8 10 mph 1020.8mb 79f
2:42 9 11 mph 1020.8mb 78f
2:36 11 15 mph 1021mb 78f
2:30 9 16 mph 1020.9mb 78f
2:24 14 17 mph 1020.9mb 78f
2:18 7 11 mph 1021.1mb 78f
2:12 13 18 mph 1021.2mb 78f
2:06 17 21 mph 1021.1mb 77f
2:00 14 16 mph 1021.3mb 77f
1:54 8 17 mph 1021.3mb 78f
1:48 11 14 mph 1021.4mb 77f
1:42 10 15 mph 1021.4mb 76f
1:36 13 17 mph 1021.4mb 76f
1:30 9 11 mph 1021.5mb 76f
1:24 9 13 mph 1021.6mb 77f
1:18 13 21 mph 1021.7mb 77f
1:12 14 17 mph 1021.8mb 77f
1:06 8 16 mph 1021.7mb 77f
1:00 9 11 mph 1021.8mb 76f
12:54 10 14 mph 1021.8mb 76f
12:48 9 14 mph 1021.9mb 76f
12:42 13 18 mph 1022mb 76f
12:36 9 15 mph 1022mb 76f
12:30 3 6 mph 1022.1mb 78f
12:24 9 15 mph 1022.1mb 77f
12:18 7 13 mph 1022.3mb 76f
12:12 9 11 mph 1022.4mb 75f
12:06 9 14 mph 1022.6mb 75f
12:00 9 13 mph 1022.6mb 75f
11:54 7 14 mph 1022.6mb 76f
11:48 8 14 mph 1022.7mb 75f
11:42 11 15 mph 1022.7mb 75f
11:36 10 14 mph 1022.8mb 75f
11:30 11 18 mph 1022.8mb 75f
11:24 13 17 mph 1022.8mb 75f
11:18 7 14 mph 1022.9mb 74f
11:12 11 15 mph 1023.1mb 75f
11:06 9 14 mph 1023.1mb 74f
11:00 13 15 mph 1023.2mb 74f
10:54 8 11 mph 1023.1mb 75f
10:48 11 17 mph 1023.3mb 75f
10:42 7 11 mph 1023.2mb 74f
10:36 13 17 mph 1023.3mb 74f
10:30 6 11 mph 1023.3mb 75f
10:24 11 14 mph 1023.3mb 75f
10:18 9 13 mph 1023.4mb 75f
10:12 8 10 mph 1023.4mb 75f
10:06 10 13 mph 1023.4mb 74f
10:00 11 14 mph 1023.4mb 74f
9:54 10 13 mph 1023.4mb 73f
9:48 10 14 mph 1023.4mb 73f
9:42 8 10 mph 1023.4mb 74f
9:36 8 10 mph 1023.3mb 74f
9:30 8 14 mph 1023.5mb 74f
9:24 8 11 mph 1023.5mb 73f
9:18 8 10 mph 1023.5mb 73f
9:12 7 10 mph 1023.4mb 73f
9:06 7 10 mph 1023.4mb 73f
9:00 5 7 mph 1023.4mb 72f
8:54 8 10 mph 1023.4mb 72f
8:48 7 9 mph 1023.4mb 72f
8:42 8 10 mph 1023.4mb 71f
8:36 9 11 mph 1023.3mb 71f
8:30 8 9 mph 1023.4mb 71f
8:24 6 8 mph 1023.5mb 70f
8:18 7 10 mph 1023.4mb 70f
8:12 7 9 mph 1023.4mb 70f
8:06 7 9 mph 1023.3mb 69f
8:00 9 11 mph 1023.3mb 69f
7:54 10 14 mph 1023.2mb 69f
7:48 8 9 mph 1023.1mb 68f
7:42 9 13 mph 1023.1mb 67f
7:36 7 9 mph 1023.1mb 67f
7:30 9 11 mph 1023mb 67f
7:24 9 11 mph 1022.9mb 66f
7:18 8 10 mph 1022.9mb 66f
7:12 6 8 mph 1022.7mb 66f
7:06 5 8 mph 1022.7mb 66f
7:00 3
mph
1022.6mb 65f
6:54 3 5 mph 1022.6mb 65f
6:48 2 3 mph 1022.6mb 65f
6:42 3 7 mph 1022.4mb 65f
6:36 3 6 mph 1022.3mb 64f
6:30 2 5 mph 1022.3mb 64f
6:24 1 2 mph 1022.2mb 64f
6:18 2 3 mph 1022.2mb 64f
6:12  -  2 mph 1022.3mb 64f
6:06 3 5 mph 1022.2mb 64f
6:00 2 5 mph 1022.2mb 64f
5:54 2 5 mph 1022.2mb 64f
5:48 3 5 mph 1022.2mb 64f
5:42 2 3 mph 1022.1mb 64f
5:36 3 5 mph 1022.1mb 64f
5:30 3 5 mph 1022mb 64f
5:24 3 6 mph 1021.9mb 65f
5:18 2 5 mph 1022mb 65f
5:12 2 5 mph 1022mb 65f
5:06 3 5 mph 1021.9mb 65f
5:00 3 5 mph 1021.8mb 65f
4:54 3 5 mph 1021.8mb 65f
4:48 2 3 mph 1021.8mb 65f
4:42 2 3 mph 1021.8mb 65f
4:36 2 3 mph 1021.7mb 66f
4:30 3 5 mph 1021.7mb 66f
4:24 5 6 mph 1021.7mb 66f
4:18 6 7 mph 1021.8mb 66f
4:12 6 7 mph 1021.7mb 66f
4:06 6 7 mph 1021.7mb 66f
4:00 5 7 mph 1021.7mb 66f
3:54 6 8 mph 1021.7mb 66f
3:48 6 8 mph 1021.6mb 67f
3:42 6 8 mph 1021.7mb 67f
3:36 3 5 mph 1021.7mb 67f
3:30 3 5 mph 1021.7mb 67f
3:24 6 7 mph 1021.6mb 67f
3:18 6 8 mph 1021.6mb 67f
3:12 6 8 mph 1021.6mb 67f
3:06 6 7 mph 1021.6mb 67f
3:00 6 7 mph 1021.6mb 67f
2:54 6 8 mph 1021.5mb 67f
2:48 6 7 mph 1021.5mb -
2:42 7 8 mph 1021.4mb -
2:36 7 8 mph 1021.3mb -
2:24 8 9 mph 1021.2mb 67f
2:18 9 11 mph 1021.1mb 67f
2:12 9 10 mph 1021.1mb 67f
2:06 8 9 mph 1021.2mb 67f
2:00 9 10 mph 1021.2mb 68f
1:54 8 10 mph 1021.1mb 68f
1:48 7 9 mph 1021.1mb -
1:42 8 9 mph 1021.1mb -
1:36 7 9 mph 1021.2mb -
1:30  -  mph 1021.2mb 68f
1:24  -  mph 1021.2mb 69f
1:18 8 9 mph 1021.2mb 70f
1:12 7 9 mph 1021.2mb 70f
1:06 8 10 mph 1021.2mb 70f
1:00 8 10 mph 1021.2mb 70f
12:54 8 10 mph 1021.3mb 70f
12:48 9 10 mph 1021.3mb 70f
12:42 8 10 mph 1021.3mb 71f
12:36 9 11 mph 1021.3mb 71f
12:30 9 11 mph 1021.2mb 71f
12:24 9 10 mph 1021.2mb 71f
12:18 10 13 mph 1021.2mb 71f
12:12 10 11 mph 1021.2mb 71f
12:06 9 13 mph 1021.2mb 72f
12:00 9 11 mph 1021.1mb 72f
mar 07/19 11:54 9 10 mph 1021mb 72f
11:48 9 11 mph 1021mb 72f
11:42 8 10 mph 1020.9mb 72f
11:36 7 10 mph 1020.9mb 72f
11:30 6 7 mph 1020.9mb 72f
11:24 7 9 mph 1020.8mb 72f
11:18  -  mph - 72f
11:12  -  mph - 72f
11:06  -  mph - 73f
10:54  -  mph - 73f
10:48 5 6 mph 1020.9mb -
10:42 6 8 mph 1020.8mb -
10:36 5 6 mph 1020.8mb -
10:30 3 5 mph - -
10:24 3 5 mph - -
10:18  -  mph - 73f
10:12  -  mph - 73f
10:06  -  mph - 73f
10:00  -  mph - 73f
9:54  -  mph - 73f
9:48 7 8 mph 1020.5mb -
9:42 7 9 mph 1020.5mb -
9:36 7 8 mph 1020.5mb -
9:30 7 9 mph 1020.4mb -
9:24 7 8 mph 1020.3mb -
9:18 7 8 mph 1020.2mb -
9:12 7 8 mph 1020.2mb -
9:06 7 8 mph 1020mb -
9:00  -  mph - 75f
8:54  -  mph - 75f
8:48 7 8 mph 1019.7mb -
8:42 7 9 mph 1019.5mb -
8:36 7 9 mph 1019.4mb -
8:30 7 9 mph 1019.3mb -
8:24 8 10 mph 1019.2mb -
8:18  -  mph 1019mb 77f
8:12  -  mph 1019mb 78f
8:06  -  mph 1018.9mb 78f
8:00  -  mph - 78f
7:54  -  mph - 79f
7:48 8 11 mph - -
7:42 9 13 mph - -
7:36 9 14 mph - -
7:30 8 13 mph - -
7:24 9 13 mph - -
7:18 13 17 mph - 80f
7:12 11 16 mph - 80f
7:06 11 15 mph - 81f
7:00 15 20 mph - 80f
6:54 16 22 mph - 81f
6:48 17 22 mph - 81f
6:42 15 20 mph - 81f
6:36 15 22 mph - 81f
6:30 11 16 mph - 81f
6:24 18 22 mph - 80f
6:18  -  mph - 80f
6:12  -  mph - 80f
6:06  -  mph - 80f
6:00  -  mph - 80f
5:54  -  mph - 81f
5:48  -  mph - 81f
5:42  -  mph - 82f
5:36  -  mph - 82f
5:30 11 14 mph 1016.9mb 82f
5:24 14 17 mph 1016.9mb 82f
5:18 14 16 mph 1016.8mb 82f
5:12 16 22 mph 1016.7mb 82f
5:06 13 20 mph 1016.7mb 83f
5:00 11 15 mph 1016.6mb 83f
4:54 14 20 mph 1016.5mb 83f
4:48 18 23 mph 1016.5mb 83f
4:42 22 26 mph 1016.4mb 83f
4:36 16 20 mph 1016.4mb 83f
4:30 16 21 mph 1016.3mb 83f
4:24 17 20 mph 1016.3mb 82f
4:18 14 17 mph 1016.3mb 83f
4:12 17 23 mph 1016.2mb 81f
4:06 14 22 mph 1016.3mb 82f
4:00 11 15 mph 1016.3mb 82f
3:54 13 18 mph 1016.2mb 82f
3:48 15 21 mph 1016.2mb 83f
3:42 14 20 mph 1016.2mb 82f
3:36 13 16 mph 1016.1mb 82f
3:30 16 17 mph 1016.1mb 82f
3:24 16 23 mph 1016.1mb 82f
3:18 18 23 mph 1016.1mb 82f
3:12 22 26 mph 1016.1mb 82f
3:06 18 22 mph 1016.1mb 82f
3:00 17 21 mph 1016.2mb 82f
2:54 13 20 mph 1016.2mb 84f
2:48 18 23 mph 1016.1mb 83f
2:42 15 22 mph 1016mb 81f
2:36 15 20 mph 1016.1mb 83f
2:30 14 18 mph 1016.1mb 83f
2:24 13 20 mph 1016.2mb 83f
2:18 15 21 mph 1016.1mb 83f
2:12 13 20 mph 1016.2mb 82f
2:06 15 18 mph 1016.2mb 81f
2:00 14 17 mph 1016.1mb 81f
1:54 14 20 mph 1016.2mb 82f
1:48 16 21 mph 1016.2mb 82f
1:42 14 24 mph 1016.1mb 81f
1:36 13 20 mph 1016.2mb 82f
1:30 14 18 mph 1016.3mb 81f
1:24 18 25 mph 1016.3mb 81f
1:18 10 17 mph 1016.4mb 82f
1:12 18 25 mph 1016.4mb 81f
1:06 14 17 mph 1016.5mb 82f
1:00 14 23 mph 1016.6mb 80f
12:54 16 21 mph 1016.6mb 80f
12:48 15 21 mph 1016.6mb 80f
12:42 14 20 mph 1016.6mb 80f
12:36 15 21 mph 1016.6mb 81f
12:30 14 18 mph 1016.5mb 81f
12:24 15 22 mph 1016.5mb 81f
12:18 15 21 mph 1016.5mb 80f
12:12 10 15 mph 1016.6mb 80f
12:06 9 14 mph 1016.6mb 80f
12:00 16 29 mph 1016.5mb 80f
11:54 13 16 mph 1016.5mb 79f
11:48 10 15 mph 1016.6mb 79f
11:42 13 16 mph 1016.6mb 79f
11:36 11 16 mph 1016.7mb 79f